Time;durP1;ratioP1;P1;durP2;ratioP2;P2;SDS_P1;SDS_P2;PMS_P1;PMS_P2;Temp;Humidity;BMP_temperature;BMP_pressure;BME280_temperature;BME280_humidity;BME280_pressure;Samples;Min_cycle;Max_cycle;Signal;HPM_P1;HPM_P2
2022/04/13 00:01:08;;;;;;;5.05;3.50;;;20.00;39.10;;;;;;1874455;76;21142;-45
2022/04/13 00:03:35;;;;;;;4.28;3.10;;;19.90;39.20;;;;;;1872910;76;21056;-49
2022/04/13 00:06:02;;;;;;;4.03;2.60;;;19.90;39.10;;;;;;1873099;76;21091;-48
2022/04/13 00:08:30;;;;;;;4.67;3.25;;;19.90;39.20;;;;;;1874047;76;21024;-48
2022/04/13 00:10:57;;;;;;;3.62;2.80;;;19.90;39.20;;;;;;1875384;76;21586;-52
2022/04/13 00:13:24;;;;;;;4.30;2.62;;;19.90;39.10;;;;;;1875652;76;21103;-48
2022/04/13 00:15:51;;;;;;;5.05;2.90;;;19.90;39.10;;;;;;1875647;76;21681;-47
2022/04/13 00:18:19;;;;;;;4.80;2.77;;;19.90;39.20;;;;;;1875405;76;21012;-48
2022/04/13 00:20:46;;;;;;;3.70;2.77;;;19.90;39.20;;;;;;1877173;76;21552;-53
2022/04/13 00:23:13;;;;;;;5.17;2.60;;;19.90;39.20;;;;;;1874888;76;21083;-49
2022/04/13 00:25:43;;;;;;;3.30;2.50;;;19.90;39.20;;;;;;1874744;76;21678;-45
2022/04/13 00:28:10;;;;;;;4.58;2.95;;;19.90;39.10;;;;;;1874455;76;21204;-48
2022/04/13 00:30:38;;;;;;;5.92;2.80;;;19.90;39.20;;;;;;1872162;76;21102;-48
2022/04/13 00:33:05;;;;;;;6.28;2.70;;;19.90;39.10;;;;;;1876746;76;21171;-48
2022/04/13 00:35:32;;;;;;;5.92;3.40;;;19.90;39.20;;;;;;1874864;76;21095;-52
2022/04/13 00:38:00;;;;;;;3.25;2.22;;;19.90;39.10;;;;;;1872096;76;21099;-46
2022/04/13 00:40:27;;;;;;;5.58;3.05;;;19.90;39.30;;;;;;1872156;76;21192;-52
2022/04/13 00:42:54;;;;;;;3.92;2.65;;;19.90;39.20;;;;;;1872153;76;21071;-47
2022/04/13 00:45:22;;;;;;;3.60;2.60;;;19.80;39.30;;;;;;1873507;76;21098;-46
2022/04/13 00:47:49;;;;;;;4.00;2.72;;;19.90;39.20;;;;;;1875412;76;21106;-47
2022/04/13 00:50:16;;;;;;;3.60;2.27;;;19.90;39.20;;;;;;1873870;76;21110;-51
2022/04/13 00:52:45;;;;;;;3.87;2.72;;;19.80;39.10;;;;;;1874487;76;21180;-46
2022/04/13 00:55:14;;;;;;;5.28;2.77;;;19.80;39.30;;;;;;1874429;76;21114;-47
2022/04/13 00:57:42;;;;;;;4.70;2.42;;;19.80;39.30;;;;;;1875916;76;21587;-46
2022/04/13 01:00:13;;;;;;;5.78;2.50;;;19.80;39.10;;;;;;1876110;76;21126;-48
2022/04/13 01:02:40;;;;;;;;;;;19.80;39.20;;;;;;1875214;76;21095;-53
2022/04/13 01:05:08;;;;;;;3.72;2.58;;;19.80;39.20;;;;;;1862384;76;20128;-54
2022/04/13 01:07:35;;;;;;;3.80;2.80;;;19.80;39.20;;;;;;1872352;76;21560;-53
2022/04/13 01:10:07;;;;;;;3.52;2.08;;;19.80;39.30;;;;;;1872379;76;21083;-54
2022/04/13 01:12:34;;;;;;;4.10;2.62;;;19.80;39.30;;;;;;1872459;76;21075;-49
2022/04/13 01:15:02;;;;;;;4.17;3.02;;;19.80;39.30;;;;;;1876992;76;21148;-48
2022/04/13 01:17:29;;;;;;;7.12;2.75;;;19.80;39.40;;;;;;1876372;76;21176;-52
2022/04/13 01:19:58;;;;;;;4.20;3.10;;;19.80;39.20;;;;;;1875573;76;21067;-49
2022/04/13 01:22:30;;;;;;;4.58;3.22;;;19.80;39.50;;;;;;1875593;76;21123;-46
2022/04/13 01:24:54;;;;;;;7.33;3.33;;;19.80;39.50;;;;;;1875652;76;21118;-46
2022/04/13 01:27:21;;;;;;;6.10;3.00;;;19.80;39.60;;;;;;1872152;76;21541;-48
2022/04/13 01:29:52;;;;;;;5.87;2.95;;;19.80;39.60;;;;;;1872418;76;21095;-47
2022/04/13 01:32:17;;;;;;;4.37;2.60;;;19.80;39.40;;;;;;1872086;76;21138;-48
2022/04/13 01:34:49;;;;;;;5.28;2.87;;;19.80;39.50;;;;;;1872115;76;21168;-49
2022/04/13 01:37:17;;;;;;;3.00;2.47;;;19.80;39.60;;;;;;1871806;76;21189;-46
2022/04/13 01:39:45;;;;;;;5.15;3.20;;;19.80;39.60;;;;;;1875097;76;21555;-47
2022/04/13 01:42:12;;;;;;;4.33;2.80;;;19.70;39.70;;;;;;1874607;76;21102;-50
2022/04/13 01:44:41;;;;;;;3.60;2.58;;;19.80;39.80;;;;;;1872297;76;21509;-50
2022/04/13 01:47:09;;;;;;;6.37;3.00;;;19.80;39.70;;;;;;1876441;76;21510;-55
2022/04/13 01:49:37;;;;;;;4.17;2.30;;;19.80;39.60;;;;;;1874865;76;21611;-49
2022/04/13 01:52:05;;;;;;;4.80;2.65;;;19.70;39.60;;;;;;1876655;76;21118;-49
2022/04/13 01:54:32;;;;;;;4.12;2.77;;;19.80;39.70;;;;;;1876188;76;21544;-50
2022/04/13 01:57:00;;;;;;;5.03;2.98;;;19.80;39.70;;;;;;1872236;76;21148;-49
2022/04/13 01:59:27;;;;;;;4.90;2.75;;;19.70;39.50;;;;;;1874771;76;21107;-51
2022/04/13 02:01:55;;;;;;;4.87;3.00;;;19.70;39.60;;;;;;1874814;76;21035;-51
2022/04/13 02:04:23;;;;;;;3.67;2.60;;;19.70;39.50;;;;;;1875679;76;21560;-47
2022/04/13 02:06:51;;;;;;;4.53;2.85;;;19.70;39.50;;;;;;1875226;76;21114;-51
2022/04/13 02:09:18;;;;;;;3.70;2.98;;;19.70;39.70;;;;;;1875505;76;21351;-48
2022/04/13 02:11:46;;;;;;;7.78;2.55;;;19.70;39.80;;;;;;1875613;76;21607;-46
2022/04/13 02:14:13;;;;;;;5.83;2.70;;;19.70;39.90;;;;;;1875644;76;21364;-47
2022/04/13 02:16:41;;;;;;;4.60;2.75;;;19.70;39.90;;;;;;1875730;75;21055;-51
2022/04/13 02:19:08;;;;;;;4.47;2.60;;;19.70;39.80;;;;;;1875499;76;21102;-47
2022/04/13 02:21:35;;;;;;;5.10;2.77;;;19.70;40.00;;;;;;1875575;75;21117;-48
2022/04/13 02:24:04;;;;;;;3.70;3.12;;;19.70;40.00;;;;;;1875556;76;21580;-50
2022/04/13 02:26:32;;;;;;;3.33;2.50;;;19.70;40.00;;;;;;1875385;75;21647;-47
2022/04/13 02:29:00;;;;;;;3.50;2.83;;;19.70;40.00;;;;;;1875399;76;21078;-50
2022/04/13 02:31:27;;;;;;;6.35;2.98;;;19.70;40.20;;;;;;1875537;76;21106;-49
2022/04/13 02:33:56;;;;;;;4.20;2.92;;;19.70;40.20;;;;;;1875527;76;21129;-46
2022/04/13 02:36:23;;;;;;;4.03;2.58;;;19.70;40.20;;;;;;1875177;76;21619;-46
2022/04/13 02:38:53;;;;;;;4.30;2.65;;;19.60;40.40;;;;;;1875490;75;21560;-49
2022/04/13 02:41:20;;;;;;;5.75;2.77;;;19.70;39.80;;;;;;1875639;76;21131;-49
2022/04/13 02:43:47;;;;;;;3.85;2.60;;;19.60;39.90;;;;;;1875451;76;21142;-51
2022/04/13 02:46:14;;;;;;;7.08;3.00;;;19.60;39.80;;;;;;1875278;76;21118;-48
2022/04/13 02:48:42;;;;;;;4.17;2.60;;;19.70;40.20;;;;;;1875610;76;21106;-46
2022/04/13 02:51:09;;;;;;;3.92;2.75;;;19.70;40.20;;;;;;1875722;76;21114;-47
2022/04/13 02:53:36;;;;;;;4.50;2.60;;;19.70;40.30;;;;;;1875568;76;21626;-46
2022/04/13 02:56:04;;;;;;;3.80;2.75;;;19.60;40.30;;;;;;1875697;76;21075;-51
2022/04/13 02:58:31;;;;;;;3.85;2.47;;;19.60;40.10;;;;;;1875522;76;21102;-51
2022/04/13 03:00:58;;;;;;;3.98;2.33;;;19.60;40.10;;;;;;1875482;76;21117;-54
2022/04/13 03:03:26;;;;;;;4.35;2.80;;;19.60;40.10;;;;;;1875431;76;22188;-51
2022/04/13 03:05:53;;;;;;;3.95;2.70;;;19.60;40.10;;;;;;1875805;76;21055;-52
2022/04/13 03:08:20;;;;;;;3.45;2.15;;;19.60;40.00;;;;;;1875568;75;21637;-47
2022/04/13 03:10:48;;;;;;;3.65;2.60;;;19.60;40.20;;;;;;1876135;75;21594;-48
2022/04/13 03:13:15;;;;;;;6.58;2.52;;;19.60;40.40;;;;;;1878029;76;21165;-47
2022/04/13 03:15:42;;;;;;;3.98;2.60;;;19.60;40.10;;;;;;1877865;76;21543;-48
2022/04/13 03:18:10;;;;;;;4.22;2.42;;;19.60;40.40;;;;;;1877636;76;22281;-56
2022/04/13 03:20:37;;;;;;;2.87;2.45;;;19.60;40.20;;;;;;1877623;75;21106;-48
2022/04/13 03:23:04;;;;;;;3.47;2.30;;;19.60;40.30;;;;;;1878035;76;21586;-50
2022/04/13 03:25:33;;;;;;;2.87;2.08;;;19.60;40.40;;;;;;1877775;76;21056;-49
2022/04/13 03:28:00;;;;;;;4.92;2.92;;;19.60;40.50;;;;;;1877660;76;21199;-56
2022/04/13 03:30:28;;;;;;;6.10;2.95;;;19.60;40.30;;;;;;1877550;76;21107;-52
2022/04/13 03:32:55;;;;;;;5.37;3.12;;;19.60;40.20;;;;;;1877724;75;21126;-50
2022/04/13 03:35:22;;;;;;;4.78;2.83;;;19.60;40.40;;;;;;1877530;76;21525;-56
2022/04/13 03:37:50;;;;;;;4.62;2.95;;;19.60;40.40;;;;;;1877697;76;21047;-49
2022/04/13 03:40:17;;;;;;;5.20;2.60;;;19.60;40.50;;;;;;1877968;76;21126;-49
2022/04/13 03:42:44;;;;;;;2.42;2.12;;;19.60;40.50;;;;;;1877830;76;21180;-50
2022/04/13 03:45:13;;;;;;;4.15;2.67;;;19.50;40.30;;;;;;1877622;75;21172;-50
2022/04/13 03:47:41;;;;;;;5.03;2.52;;;19.60;40.40;;;;;;1877523;76;21102;-46
2022/04/13 03:50:09;;;;;;;3.30;2.40;;;19.60;40.60;;;;;;1877338;76;21626;-51
2022/04/13 03:52:36;;;;;;;6.10;2.60;;;19.50;40.40;;;;;;1877493;76;21396;-51
2022/04/13 03:55:05;;;;;;;4.70;2.92;;;19.50;40.40;;;;;;1877470;76;21450;-51
2022/04/13 03:57:32;;;;;;;3.87;2.60;;;19.50;40.60;;;;;;1877818;76;21158;-47
2022/04/13 03:59:59;;;;;;;3.27;2.33;;;19.50;40.50;;;;;;1877762;76;21195;-50
2022/04/13 04:02:27;;;;;;;4.62;3.00;;;19.50;40.40;;;;;;1877570;75;21164;-49
2022/04/13 04:04:54;;;;;;;2.87;2.20;;;19.50;40.50;;;;;;1877384;76;21191;-50
2022/04/13 04:07:21;;;;;;;3.58;2.35;;;19.50;40.50;;;;;;1877329;76;21172;-50
2022/04/13 04:09:50;;;;;;;4.60;2.70;;;19.50;40.60;;;;;;1877380;76;21454;-48
2022/04/13 04:12:17;;;;;;;3.55;2.30;;;19.50;40.60;;;;;;1878952;76;21141;-54
2022/04/13 04:14:45;;;;;;;3.40;2.42;;;19.50;40.60;;;;;;1874907;76;21122;-47
2022/04/13 04:17:12;;;;;;;3.62;2.50;;;19.50;40.60;;;;;;1874494;76;21108;-50
2022/04/13 04:19:39;;;;;;;3.98;2.72;;;19.50;40.50;;;;;;1874384;76;21185;-52
2022/04/13 04:22:07;;;;;;;3.83;2.70;;;19.50;40.50;;;;;;1873790;76;21044;-50
2022/04/13 04:24:34;;;;;;;3.77;2.75;;;19.50;40.70;;;;;;1874270;76;21114;-50
2022/04/13 04:27:01;;;;;;;4.65;2.75;;;19.50;40.80;;;;;;1874718;75;21103;-48
2022/04/13 04:29:28;;;;;;;3.85;2.35;;;19.50;40.70;;;;;;1875345;76;21114;-48
2022/04/13 04:31:58;;;;;;;4.33;2.40;;;19.50;40.70;;;;;;1875238;76;21364;-48
2022/04/13 04:34:25;;;;;;;8.53;2.60;;;19.50;40.70;;;;;;1875322;75;22140;-47
2022/04/13 04:36:52;;;;;;;2.52;2.33;;;19.50;40.80;;;;;;1875052;76;21110;-54
2022/04/13 04:39:19;;;;;;;3.22;2.35;;;19.50;40.80;;;;;;1875359;76;21626;-50
2022/04/13 04:41:47;;;;;;;4.28;2.30;;;19.50;40.90;;;;;;1875611;76;21106;-51
2022/04/13 04:44:14;;;;;;;3.47;2.30;;;19.50;40.80;;;;;;1875897;76;21207;-52
2022/04/13 04:46:41;;;;;;;3.00;2.40;;;19.50;40.70;;;;;;1875486;76;21156;-52
2022/04/13 04:49:09;;;;;;;3.27;2.72;;;19.50;41.10;;;;;;1875928;76;21130;-51
2022/04/13 04:51:36;;;;;;;4.10;2.45;;;19.50;40.80;;;;;;1875828;76;21090;-50
2022/04/13 04:54:04;;;;;;;5.25;2.75;;;19.50;40.80;;;;;;1875573;76;21055;-48
2022/04/13 04:56:31;;;;;;;3.45;2.77;;;19.50;40.80;;;;;;1875858;76;21184;-48
2022/04/13 04:58:58;;;;;;;3.58;2.50;;;19.50;40.60;;;;;;1875364;76;21433;-47
2022/04/13 05:01:26;;;;;;;3.05;2.42;;;19.50;40.80;;;;;;1874911;76;21165;-47
2022/04/13 05:03:53;;;;;;;3.60;2.45;;;19.50;40.80;;;;;;1874686;76;21051;-53
2022/04/13 05:06:21;;;;;;;4.03;2.30;;;19.50;41.10;;;;;;1874985;76;21055;-46
2022/04/13 05:08:51;;;;;;;4.90;2.77;;;19.50;40.80;;;;;;1875566;76;21106;-50
2022/04/13 05:11:19;;;;;;;3.27;2.42;;;19.50;41.00;;;;;;1875137;76;21576;-46
2022/04/13 05:13:46;;;;;;;3.50;2.52;;;19.50;40.90;;;;;;1873197;76;21122;-48
2022/04/13 05:16:15;;;;;;;4.00;2.80;;;19.50;40.90;;;;;;1872245;76;21125;-49
2022/04/13 05:18:43;;;;;;;5.50;2.90;;;19.50;41.10;;;;;;1876146;76;21543;-47
2022/04/13 05:21:10;;;;;;;4.17;2.72;;;19.50;41.10;;;;;;1874094;76;21043;-49
2022/04/13 05:23:38;;;;;;;4.22;2.50;;;19.50;40.90;;;;;;1872378;76;21119;-47
2022/04/13 05:26:05;;;;;;;4.22;2.62;;;19.50;41.10;;;;;;1872104;76;21053;-49
2022/04/13 05:28:33;;;;;;;6.10;2.30;;;19.50;40.70;;;;;;1877352;76;21142;-48
2022/04/13 05:31:00;;;;;;;3.37;2.30;;;19.50;40.90;;;;;;1874235;76;21587;-48
2022/04/13 05:33:28;;;;;;;3.05;2.40;;;19.50;40.70;;;;;;1876439;76;21106;-50
2022/04/13 05:35:55;;;;;;;4.33;2.70;;;19.50;40.60;;;;;;1872264;76;21142;-46
2022/04/13 05:38:23;;;;;;;4.47;2.60;;;19.50;40.80;;;;;;1875737;76;21575;-46
2022/04/13 05:40:50;;;;;;;4.17;2.58;;;19.50;40.60;;;;;;1871817;76;21130;-47
2022/04/13 05:43:18;;;;;;;3.52;2.77;;;19.50;41.30;;;;;;1871827;76;21158;-48
2022/04/13 05:45:45;;;;;;;4.12;2.83;;;19.50;40.50;;;;;;1874977;76;21138;-49
2022/04/13 05:48:12;;;;;;;3.58;2.60;;;19.50;40.40;;;;;;1875027;75;21055;-49
2022/04/13 05:50:40;;;;;;;4.25;2.45;;;19.60;40.60;;;;;;1875193;76;21086;-49
2022/04/13 05:53:07;;;;;;;4.22;2.70;;;19.60;40.70;;;;;;1874770;76;21125;-47
2022/04/13 05:55:34;;;;;;;4.87;3.25;;;19.60;40.50;;;;;;1876888;76;21079;-49
2022/04/13 05:58:02;;;;;;;4.08;2.50;;;19.60;40.60;;;;;;1874795;76;21106;-54
2022/04/13 06:00:29;;;;;;;6.42;2.72;;;19.60;40.70;;;;;;1872256;76;21525;-50
2022/04/13 06:02:57;;;;;;;5.50;2.83;;;19.60;40.50;;;;;;1871898;76;21619;-52
2022/04/13 06:05:24;;;;;;;3.22;2.22;;;19.60;40.50;;;;;;1872283;76;21088;-47
2022/04/13 06:07:53;;;;;;;4.58;2.70;;;19.60;40.40;;;;;;1876107;76;21127;-53
2022/04/13 06:10:21;;;;;;;6.55;3.12;;;19.70;40.60;;;;;;1876361;76;21112;-48
2022/04/13 06:12:48;;;;;;;6.87;3.27;;;19.60;40.40;;;;;;1875294;75;21095;-53
2022/04/13 06:15:16;;;;;;;5.03;2.50;;;19.60;40.70;;;;;;1877830;76;21172;-50
2022/04/13 06:17:43;;;;;;;4.10;3.17;;;19.70;40.50;;;;;;1877488;76;21481;-47
2022/04/13 06:20:14;;;;;;;3.83;2.47;;;19.70;40.40;;;;;;1877655;76;21203;-52
2022/04/13 06:22:41;;;;;;;3.90;2.60;;;19.70;40.30;;;;;;1877703;75;21477;-51
2022/04/13 06:25:10;;;;;;;4.90;2.42;;;19.70;40.20;;;;;;1877667;76;21124;-50
2022/04/13 06:27:37;;;;;;;4.30;2.87;;;19.70;40.20;;;;;;1877616;76;21078;-46
2022/04/13 06:30:05;;;;;;;5.55;2.70;;;19.70;40.00;;;;;;1877841;76;21062;-48
2022/04/13 06:32:37;;;;;;;9.40;2.95;;;19.80;40.10;;;;;;1877944;76;21100;-49
2022/04/13 06:35:05;;;;;;;4.85;2.90;;;19.70;40.00;;;;;;1877836;76;21059;-47
2022/04/13 06:37:32;;;;;;;4.97;3.12;;;19.80;40.00;;;;;;1877654;76;21517;-48
2022/04/13 06:39:59;;;;;;;3.85;2.60;;;19.80;40.00;;;;;;1877692;76;21056;-53
2022/04/13 06:42:27;;;;;;;4.37;3.15;;;19.80;40.10;;;;;;1877334;75;21203;-51
2022/04/13 06:44:54;;;;;;;3.75;2.92;;;19.80;39.90;;;;;;1877222;75;21098;-50
2022/04/13 06:47:21;;;;;;;4.15;2.30;;;19.80;39.90;;;;;;1877125;76;21195;-49
2022/04/13 06:49:49;;;;;;;3.12;2.50;;;19.80;40.00;;;;;;1877092;76;21763;-49
2022/04/13 06:52:16;;;;;;;4.15;2.40;;;19.80;40.10;;;;;;1877567;76;21074;-51
2022/04/13 06:54:43;;;;;;;4.25;3.02;;;19.90;40.30;;;;;;1877819;76;21110;-51
2022/04/13 06:57:11;;;;;;;6.42;2.72;;;19.90;40.30;;;;;;1877625;76;21104;-53
2022/04/13 06:59:38;;;;;;;4.90;3.15;;;19.90;40.40;;;;;;1877669;76;21106;-54
2022/04/13 07:02:10;;;;;;;6.42;2.60;;;19.90;40.30;;;;;;1877283;76;21141;-51
2022/04/13 07:04:35;;;;;;;5.60;3.45;;;19.90;40.20;;;;;;1875630;76;21222;-45
2022/04/13 07:07:02;;;;;;;3.60;2.40;;;19.90;40.20;;;;;;1877818;76;21118;-49
2022/04/13 07:09:30;;;;;;;3.62;2.58;;;20.00;40.80;;;;;;1877785;76;21199;-46
2022/04/13 07:11:57;;;;;;;3.92;2.47;;;20.00;39.90;;;;;;1877487;76;21536;-50
2022/04/13 07:14:24;;;;;;;5.97;2.72;;;20.10;39.90;;;;;;1875111;76;21231;-49
2022/04/13 07:16:52;;;;;;;4.25;2.67;;;20.10;39.80;;;;;;1876938;76;21847;-51
2022/04/13 07:19:19;;;;;;;4.40;2.80;;;20.10;39.70;;;;;;1874558;76;21145;-51
2022/04/13 07:21:46;;;;;;;3.02;2.60;;;20.20;39.70;;;;;;1874906;76;21027;-47
2022/04/13 07:24:14;;;;;;;5.00;2.98;;;20.20;39.70;;;;;;1875055;76;21125;-46
2022/04/13 07:26:41;;;;;;;4.33;2.80;;;20.20;39.60;;;;;;1874685;76;21539;-49
2022/04/13 07:29:08;;;;;;;4.70;3.10;;;20.20;39.50;;;;;;1874976;76;21133;-49
2022/04/13 07:31:36;;;;;;;6.10;3.00;;;20.30;39.50;;;;;;1875266;76;21697;-51
2022/04/13 07:34:03;;;;;;;3.15;2.52;;;20.30;39.40;;;;;;1874558;76;21106;-50
2022/04/13 07:36:30;;;;;;;6.28;3.37;;;20.30;39.30;;;;;;1874876;76;21547;-49
2022/04/13 07:38:57;;;;;;;2.60;2.15;;;20.30;39.30;;;;;;1875543;76;21063;-47
2022/04/13 07:41:25;;;;;;;3.70;2.67;;;20.40;39.60;;;;;;1873165;76;21524;-51
2022/04/13 07:43:52;;;;;;;6.15;2.70;;;20.40;39.70;;;;;;1870126;75;21056;-50
2022/04/13 07:46:19;;;;;;;7.47;2.92;;;20.40;40.00;;;;;;1866273;76;21643;-45
2022/04/13 07:48:47;;;;;;;5.90;3.17;;;20.40;39.70;;;;;;1865790;77;21154;-46
2022/04/13 07:51:14;;;;;;;9.15;3.30;;;20.50;39.70;;;;;;1865848;77;21608;-51
2022/04/13 07:53:41;;;;;;;8.70;3.15;;;20.50;39.70;;;;;;1865488;76;21139;-55
2022/04/13 07:56:09;;;;;;;12.73;3.15;;;20.50;39.60;;;;;;1865607;77;21572;-50
2022/04/13 07:58:36;;;;;;;5.75;3.20;;;20.60;39.60;;;;;;1876095;76;21098;-51
2022/04/13 08:01:03;;;;;;;8.08;3.47;;;20.60;39.70;;;;;;1877666;76;21666;-52
2022/04/13 08:03:31;;;;;;;4.30;3.05;;;20.60;39.70;;;;;;1876541;76;21115;-49
2022/04/13 08:05:58;;;;;;;4.55;2.72;;;20.60;39.70;;;;;;1876987;76;21647;-50
2022/04/13 08:08:25;;;;;;;5.25;3.02;;;20.60;39.60;;;;;;1877022;76;21103;-47
2022/04/13 08:10:52;;;;;;;7.67;2.72;;;20.70;39.50;;;;;;1877116;76;21674;-53
2022/04/13 08:13:20;;;;;;;6.17;3.02;;;20.70;39.40;;;;;;1876002;75;21124;-52
2022/04/13 08:15:47;;;;;;;6.65;2.90;;;20.70;39.30;;;;;;1875010;76;21577;-48
2022/04/13 08:18:14;;;;;;;3.45;2.80;;;20.80;39.30;;;;;;1875566;76;21083;-46
2022/04/13 08:20:42;;;;;;;8.43;3.05;;;20.80;39.10;;;;;;1875039;76;21556;-48
2022/04/13 08:23:09;;;;;;;5.78;2.77;;;20.80;39.20;;;;;;1875594;76;21082;-54
2022/04/13 08:25:36;;;;;;;15.45;3.67;;;20.80;39.20;;;;;;1874769;76;22332;-52
2022/04/13 08:28:04;;;;;;;6.45;3.42;;;20.80;39.10;;;;;;1875115;76;21080;-47
2022/04/13 08:30:31;;;;;;;6.37;2.80;;;20.80;39.00;;;;;;1874941;76;21119;-52
2022/04/13 08:32:58;;;;;;;4.37;3.08;;;20.80;39.10;;;;;;1874759;76;21560;-49
2022/04/13 08:35:26;;;;;;;3.90;2.55;;;20.80;39.10;;;;;;1874581;76;21052;-51
2022/04/13 08:37:53;;;;;;;7.17;3.08;;;20.80;38.90;;;;;;1874353;76;21114;-49
2022/04/13 08:40:21;;;;;;;4.55;2.60;;;20.80;38.90;;;;;;1874731;76;21174;-48
2022/04/13 08:42:55;;;;;;;5.42;3.20;;;20.90;38.80;;;;;;1875085;76;21111;-49
2022/04/13 08:45:26;;;;;;;7.78;3.12;;;20.90;38.70;;;;;;1874458;76;21045;-49
2022/04/13 08:48:00;;;;;;;8.70;3.10;;;21.00;38.90;;;;;;1874677;76;21025;-54
2022/04/13 08:50:27;;;;;;;4.45;3.12;;;21.00;38.80;;;;;;1870498;76;21119;-56
2022/04/13 08:52:57;;;;;;;6.43;3.17;;;21.00;38.70;;;;;;1874538;75;21596;-52
2022/04/13 08:55:24;;;;;;;6.17;3.37;;;21.00;38.50;;;;;;1872267;75;21057;-52
2022/04/13 08:57:55;;;;;;;9.48;3.83;;;21.00;37.40;;;;;;1874680;76;21107;-51
2022/04/13 09:00:22;;;;;;;;;;;20.90;37.00;;;;;;1867198;75;21098;-52
2022/04/13 09:02:55;;;;;;;11.90;4.22;;;20.90;36.60;;;;;;1871757;76;20212;-50
2022/04/13 09:05:24;;;;;;;9.18;4.35;;;20.90;36.20;;;;;;1874274;75;21083;-50
2022/04/13 09:08:07;;;;;;;6.33;3.58;;;20.90;36.30;;;;;;1875788;76;21112;-47
2022/04/13 09:10:34;;;;;;;6.87;3.75;;;20.80;36.90;;;;;;1874128;75;21783;-49
2022/04/13 09:13:02;;;;;;;9.43;3.08;;;20.90;36.40;;;;;;1873608;76;21146;-48
2022/04/13 09:15:29;;;;;;;6.25;3.35;;;20.90;36.30;;;;;;1875179;76;21154;-50
2022/04/13 09:17:56;;;;;;;4.80;3.22;;;20.90;36.30;;;;;;1875795;76;21579;-51
2022/04/13 09:20:24;;;;;;;10.18;3.40;;;20.90;36.20;;;;;;1875782;76;21083;-52
2022/04/13 09:22:51;;;;;;;9.95;4.25;;;20.90;36.00;;;;;;1876429;75;21167;-46
2022/04/13 09:25:20;;;;;;;7.92;3.62;;;20.90;36.10;;;;;;1876531;75;21376;-51
2022/04/13 09:27:48;;;;;;;5.72;4.05;;;20.90;36.00;;;;;;1875167;76;21060;-52
2022/04/13 09:30:16;;;;;;;5.83;3.20;;;21.00;36.10;;;;;;1875537;75;21142;-55
2022/04/13 09:44:18;;;;;;;11.33;4.30;;;22.40;35.40;;;;;;1920736;74;23508;-69
2022/04/13 09:46:46;;;;;;;7.42;3.62;;;21.50;37.10;;;;;;1881060;76;21059;-64
2022/04/13 09:49:17;;;;;;;7.55;3.08;;;21.00;37.70;;;;;;1881101;76;21168;-69
2022/04/13 09:51:50;;;;;;;10.95;4.12;;;20.80;38.40;;;;;;1879901;76;21164;-67
2022/04/13 09:54:18;;;;;;;10.90;3.08;;;20.70;38.80;;;;;;1849714;77;21113;-63
2022/04/13 09:56:51;;;;;;;6.40;3.60;;;20.70;38.90;;;;;;1849385;77;21137;-67
2022/04/13 09:59:31;;;;;;;7.55;3.55;;;20.70;39.20;;;;;;1824147;77;21199;-64
2022/04/13 10:01:59;;;;;;;7.95;3.83;;;20.70;39.50;;;;;;1831226;77;21627;-70
2022/04/13 10:04:31;;;;;;;11.25;3.90;;;20.80;40.00;;;;;;1838715;77;21344;-68
2022/04/13 10:07:18;;;;;;;9.33;3.37;;;20.80;40.30;;;;;;1849726;77;21078;-69
2022/04/13 10:09:45;;;;;;;8.15;4.05;;;20.70;40.20;;;;;;1849300;76;21600;-68
2022/04/13 10:12:12;;;;;;;13.35;3.85;;;20.70;40.90;;;;;;1832417;77;21130;-68
2022/04/13 10:14:40;;;;;;;5.50;3.30;;;20.70;40.30;;;;;;1822963;77;21560;-64
2022/04/13 10:17:16;;;;;;;10.32;4.00;;;20.70;40.40;;;;;;1812200;79;21203;-66
2022/04/13 10:19:44;;;;;;;7.83;3.35;;;20.70;40.70;;;;;;1811852;79;21746;-67
2022/04/13 10:22:12;;;;;;;9.63;3.98;;;20.70;40.50;;;;;;1780819;79;21165;-64
2022/04/13 10:24:40;;;;;;;5.87;3.42;;;20.70;39.70;;;;;;1812362;79;21138;-64
2022/04/13 10:27:18;;;;;;;6.58;3.17;;;20.70;39.80;;;;;;1812631;79;21157;-66
2022/04/13 10:29:44;;;;;;;11.45;3.40;;;20.70;39.80;;;;;;1812301;79;21149;-66
2022/04/13 10:32:16;;;;;;;10.45;3.45;;;20.80;39.60;;;;;;1821376;77;21160;-66
2022/04/13 10:34:53;;;;;;;15.55;3.60;;;20.80;39.80;;;;;;1849308;77;21106;-66
2022/04/13 10:37:19;;;;;;;9.00;3.67;;;20.80;39.80;;;;;;1833154;77;21645;-68
2022/04/13 10:39:47;;;;;;;13.22;3.62;;;20.90;40.40;;;;;;1826728;77;21140;-64
2022/04/13 10:42:15;;;;;;;12.70;3.50;;;20.90;40.10;;;;;;1834927;77;21595;-66
2022/04/13 10:44:44;;;;;;;7.08;3.30;;;20.90;40.20;;;;;;1849120;76;21211;-65
2022/04/13 10:47:13;;;;;;;10.20;3.67;;;20.90;40.20;;;;;;1848956;77;21652;-67
2022/04/13 10:49:44;;;;;;;5.70;3.05;;;20.90;39.60;;;;;;1849305;77;21082;-63
2022/04/13 10:52:12;;;;;;;;;;;20.90;39.70;;;;;;1851928;77;21143;-64
2022/04/13 10:54:40;;;;;;;16.07;3.10;;;20.80;39.40;;;;;;1848804;77;20484;-66
2022/04/13 10:57:07;;;;;;;9.15;3.92;;;20.80;39.60;;;;;;1827170;77;21106;-69
2022/04/13 10:59:44;;;;;;;10.30;2.72;;;20.90;39.80;;;;;;1848304;76;21104;-67
2022/04/13 11:02:15;;;;;;;10.30;3.80;;;20.90;39.60;;;;;;1848980;76;21153;-64
2022/04/13 11:04:42;;;;;;;10.75;3.85;;;20.90;40.50;;;;;;1844930;76;21187;-69
2022/04/13 11:07:09;;;;;;;6.55;3.35;;;20.80;39.90;;;;;;1848678;77;21562;-66
2022/04/13 11:09:40;;;;;;;10.70;5.08;;;20.80;40.00;;;;;;1848542;77;21133;-61
2022/04/13 11:12:07;;;;;;;;;;;20.90;39.80;;;;;;1812481;78;21600;-65
2022/04/13 11:14:47;;;;;;;7.20;3.37;;;20.90;40.10;;;;;;1810542;78;20227;-64
2022/04/13 11:17:17;;;;;;;6.83;3.20;;;20.90;39.80;;;;;;1807933;78;21124;-66
2022/04/13 11:19:45;;;;;;;8.15;3.42;;;20.90;39.80;;;;;;1827410;77;21163;-62
2022/04/13 11:22:19;;;;;;;6.35;2.87;;;21.00;39.40;;;;;;1848465;77;21604;-67
2022/04/13 11:24:52;;;;;;;9.05;3.22;;;21.00;40.00;;;;;;1828292;77;21183;-67
2022/04/13 11:27:19;;;;;;;7.20;2.75;;;21.00;39.60;;;;;;1838657;77;21098;-65
2022/04/13 11:30:01;;;;;;;7.47;3.17;;;20.90;38.90;;;;;;1814789;77;21082;-64
2022/04/13 11:32:31;;;;;;;12.40;3.02;;;20.90;39.30;;;;;;1834615;76;21137;-66
2022/04/13 11:35:00;;;;;;;11.15;2.62;;;20.90;39.30;;;;;;1842543;78;21544;-65
2022/04/13 11:37:38;;;;;;;7.80;3.42;;;20.90;39.50;;;;;;1833066;77;21098;-65
2022/04/13 11:40:07;;;;;;;10.98;3.15;;;20.90;39.60;;;;;;1826367;77;21173;-67
2022/04/13 11:42:42;;;;;;;10.15;3.10;;;20.90;39.70;;;;;;1823891;77;21153;-66
2022/04/13 11:45:17;;;;;;;11.15;3.62;;;20.90;40.10;;;;;;1842997;76;21161;-66
2022/04/13 11:47:58;;;;;;;10.90;3.58;;;20.90;39.80;;;;;;1843638;78;21141;-64
2022/04/13 11:50:36;;;;;;;13.05;3.37;;;20.90;39.70;;;;;;1800015;79;21564;-66
2022/04/13 11:53:14;;;;;;;7.72;3.30;;;21.00;40.10;;;;;;1822997;78;21589;-65
2022/04/13 11:55:46;;;;;;;10.60;3.08;;;21.00;39.90;;;;;;1796149;78;21612;-67
2022/04/13 11:58:20;;;;;;;8.68;3.17;;;21.00;40.60;;;;;;1842873;77;21675;-69
2022/04/13 12:00:50;;;;;;;6.95;3.42;;;21.00;40.40;;;;;;1812660;77;21484;-66
2022/04/13 12:03:22;;;;;;;4.97;3.05;;;21.10;40.30;;;;;;1835812;77;21737;-67
2022/04/13 12:05:51;;;;;;;9.28;3.72;;;21.10;40.20;;;;;;1806456;78;21098;-66
2022/04/13 12:08:23;;;;;;;8.18;2.92;;;21.10;40.40;;;;;;1823432;78;21078;-65
2022/04/13 12:10:57;;;;;;;6.08;2.80;;;21.10;40.30;;;;;;1842114;77;21541;-66
2022/04/13 12:13:24;;;;;;;5.65;2.87;;;21.10;40.10;;;;;;1822723;77;21533;-66
2022/04/13 12:15:55;;;;;;;5.90;2.50;;;21.10;40.00;;;;;;1843916;78;21168;-69
2022/04/13 12:18:24;;;;;;;6.28;2.40;;;21.10;40.00;;;;;;1842161;77;21102;-68
2022/04/13 12:20:53;;;;;;;5.65;3.33;;;21.10;39.90;;;;;;1815916;78;21563;-67
2022/04/13 12:23:25;;;;;;;5.92;2.90;;;21.10;39.70;;;;;;1826479;78;21147;-67
2022/04/13 12:25:57;;;;;;;9.23;3.47;;;21.10;39.90;;;;;;1831118;78;21141;-67
2022/04/13 12:28:25;;;;;;;4.75;3.05;;;21.10;39.70;;;;;;1841520;77;21124;-66
2022/04/13 12:30:56;;;;;;;6.83;3.80;;;21.10;39.70;;;;;;1815862;78;22311;-67
2022/04/13 12:33:24;;;;;;;6.05;2.92;;;21.10;39.70;;;;;;1843696;77;21137;-66
2022/04/13 12:35:59;;;;;;;14.00;4.72;;;21.10;39.60;;;;;;1818756;77;21109;-64
2022/04/13 12:38:33;;;;;;;12.18;3.75;;;21.10;39.20;;;;;;1840509;78;21098;-64
2022/04/13 12:41:04;;;;;;;13.00;3.12;;;21.10;39.40;;;;;;1831754;77;21576;-63
2022/04/13 12:43:31;;;;;;;4.85;2.92;;;21.10;39.50;;;;;;1819897;76;21279;-64
2022/04/13 12:45:59;;;;;;;9.08;3.15;;;21.20;39.50;;;;;;1823033;78;21361;-66
2022/04/13 12:48:28;;;;;;;8.55;2.58;;;21.20;40.60;;;;;;1820025;77;21129;-68
2022/04/13 12:50:56;;;;;;;9.60;2.80;;;21.20;40.30;;;;;;1818159;78;21079;-67
2022/04/13 12:53:24;;;;;;;9.60;2.65;;;21.20;40.20;;;;;;1815154;79;21657;-69
2022/04/13 12:55:56;;;;;;;4.72;2.45;;;21.20;39.60;;;;;;1819023;79;21137;-69
2022/04/13 12:58:24;;;;;;;10.10;2.85;;;21.10;39.90;;;;;;1815910;77;21136;-66
2022/04/13 13:00:54;;;;;;;9.90;3.05;;;21.20;39.90;;;;;;1819784;77;21581;-66
2022/04/13 13:03:22;;;;;;;4.30;2.52;;;21.20;39.70;;;;;;1815246;78;21216;-67
2022/04/13 13:05:49;;;;;;;9.60;3.30;;;21.10;39.60;;;;;;1830948;77;21083;-68